sensor_id;sensor_type;location;lat;lon;timestamp;P1;durP1;ratioP1;P2;durP2;ratioP2
9100;SDS011;4586;52.518;13.486;2023-08-20T00:02:26;12.40;;;11.02;;
9100;SDS011;4586;52.518;13.486;2023-08-20T00:06:29;14.90;;;12.80;;
9100;SDS011;4586;52.518;13.486;2023-08-20T00:10:32;14.25;;;12.77;;
9100;SDS011;4586;52.518;13.486;2023-08-20T00:18:55;13.23;;;11.75;;
9100;SDS011;4586;52.518;13.486;2023-08-20T00:22:57;12.52;;;11.23;;
9100;SDS011;4586;52.518;13.486;2023-08-20T00:27:00;13.93;;;11.30;;
9100;SDS011;4586;52.518;13.486;2023-08-20T00:31:02;13.13;;;11.68;;
9100;SDS011;4586;52.518;13.486;2023-08-20T00:35:04;12.45;;;11.20;;
9100;SDS011;4586;52.518;13.486;2023-08-20T00:39:07;15.90;;;13.20;;
9100;SDS011;4586;52.518;13.486;2023-08-20T00:43:09;16.70;;;12.20;;
9100;SDS011;4586;52.518;13.486;2023-08-20T00:47:11;12.73;;;11.43;;
9100;SDS011;4586;52.518;13.486;2023-08-20T00:51:14;14.52;;;11.38;;
9100;SDS011;4586;52.518;13.486;2023-08-20T00:55:16;12.20;;;11.00;;
9100;SDS011;4586;52.518;13.486;2023-08-20T00:59:18;15.32;;;11.30;;
9100;SDS011;4586;52.518;13.486;2023-08-20T01:03:21;14.43;;;11.30;;
9100;SDS011;4586;52.518;13.486;2023-08-20T01:11:29;12.35;;;10.73;;
9100;SDS011;4586;52.518;13.486;2023-08-20T01:15:33;11.23;;;10.18;;
9100;SDS011;4586;52.518;13.486;2023-08-20T01:19:35;13.18;;;10.82;;
9100;SDS011;4586;52.518;13.486;2023-08-20T01:28:28;10.93;;;9.82;;
9100;SDS011;4586;52.518;13.486;2023-08-20T01:32:30;10.95;;;9.85;;
9100;SDS011;4586;52.518;13.486;2023-08-20T01:36:33;10.25;;;9.15;;
9100;SDS011;4586;52.518;13.486;2023-08-20T01:40:36;10.90;;;9.45;;
9100;SDS011;4586;52.518;13.486;2023-08-20T01:44:38;10.57;;;8.70;;
9100;SDS011;4586;52.518;13.486;2023-08-20T01:48:42;10.05;;;8.75;;
9100;SDS011;4586;52.518;13.486;2023-08-20T01:52:44;11.63;;;9.02;;
9100;SDS011;4586;52.518;13.486;2023-08-20T01:56:46;10.93;;;9.00;;
9100;SDS011;4586;52.518;13.486;2023-08-20T02:00:48;11.38;;;9.48;;
9100;SDS011;4586;52.518;13.486;2023-08-20T02:04:50;10.90;;;9.07;;
9100;SDS011;4586;52.518;13.486;2023-08-20T02:08:53;10.45;;;9.38;;
9100;SDS011;4586;52.518;13.486;2023-08-20T02:12:57;11.05;;;9.75;;
9100;SDS011;4586;52.518;13.486;2023-08-20T02:16:59;11.57;;;9.57;;
9100;SDS011;4586;52.518;13.486;2023-08-20T02:21:01;13.75;;;10.05;;
9100;SDS011;4586;52.518;13.486;2023-08-20T02:25:04;11.23;;;10.02;;
9100;SDS011;4586;52.518;13.486;2023-08-20T02:29:06;11.23;;;9.30;;
9100;SDS011;4586;52.518;13.486;2023-08-20T02:33:10;9.10;;;8.20;;
9100;SDS011;4586;52.518;13.486;2023-08-20T02:37:12;10.07;;;9.07;;
9100;SDS011;4586;52.518;13.486;2023-08-20T02:41:14;12.15;;;9.15;;
9100;SDS011;4586;52.518;13.486;2023-08-20T02:45:16;14.10;;;9.35;;
9100;SDS011;4586;52.518;13.486;2023-08-20T02:49:18;9.55;;;8.52;;
9100;SDS011;4586;52.518;13.486;2023-08-20T02:53:21;11.02;;;8.65;;
9100;SDS011;4586;52.518;13.486;2023-08-20T02:57:23;15.20;;;9.07;;
9100;SDS011;4586;52.518;13.486;2023-08-20T03:01:26;11.05;;;8.82;;
9100;SDS011;4586;52.518;13.486;2023-08-20T03:05:29;13.98;;;8.55;;
9100;SDS011;4586;52.518;13.486;2023-08-20T03:09:31;10.57;;;9.00;;
9100;SDS011;4586;52.518;13.486;2023-08-20T03:13:34;9.40;;;8.43;;
9100;SDS011;4586;52.518;13.486;2023-08-20T03:17:36;9.48;;;8.40;;
9100;SDS011;4586;52.518;13.486;2023-08-20T03:21:39;11.38;;;8.60;;
9100;SDS011;4586;52.518;13.486;2023-08-20T03:25:41;9.98;;;8.80;;
9100;SDS011;4586;52.518;13.486;2023-08-20T03:29:43;12.65;;;8.77;;
9100;SDS011;4586;52.518;13.486;2023-08-20T03:33:46;11.38;;;8.70;;
9100;SDS011;4586;52.518;13.486;2023-08-20T03:37:50;9.63;;;8.32;;
9100;SDS011;4586;52.518;13.486;2023-08-20T03:41:52;9.98;;;8.20;;
9100;SDS011;4586;52.518;13.486;2023-08-20T03:45:55;10.40;;;8.18;;
9100;SDS011;4586;52.518;13.486;2023-08-20T03:49:57;9.38;;;8.40;;
9100;SDS011;4586;52.518;13.486;2023-08-20T03:54:01;8.88;;;7.97;;
9100;SDS011;4586;52.518;13.486;2023-08-20T03:58:03;9.13;;;8.00;;
9100;SDS011;4586;52.518;13.486;2023-08-20T04:02:05;10.80;;;8.25;;
9100;SDS011;4586;52.518;13.486;2023-08-20T04:06:08;9.85;;;8.82;;
9100;SDS011;4586;52.518;13.486;2023-08-20T04:10:11;9.82;;;8.32;;
9100;SDS011;4586;52.518;13.486;2023-08-20T04:14:13;8.68;;;7.78;;
9100;SDS011;4586;52.518;13.486;2023-08-20T04:18:15;10.95;;;8.10;;
9100;SDS011;4586;52.518;13.486;2023-08-20T04:22:18;13.07;;;7.53;;
9100;SDS011;4586;52.518;13.486;2023-08-20T04:26:20;10.98;;;8.98;;
9100;SDS011;4586;52.518;13.486;2023-08-20T04:30:22;9.65;;;8.48;;
9100;SDS011;4586;52.518;13.486;2023-08-20T04:34:24;9.88;;;8.27;;
9100;SDS011;4586;52.518;13.486;2023-08-20T04:38:28;9.57;;;8.57;;
9100;SDS011;4586;52.518;13.486;2023-08-20T04:42:31;12.05;;;8.82;;
9100;SDS011;4586;52.518;13.486;2023-08-20T04:46:34;14.25;;;9.02;;
9100;SDS011;4586;52.518;13.486;2023-08-20T04:50:36;10.60;;;8.32;;
9100;SDS011;4586;52.518;13.486;2023-08-20T04:54:38;10.60;;;8.48;;
9100;SDS011;4586;52.518;13.486;2023-08-20T04:58:42;11.95;;;8.70;;
9100;SDS011;4586;52.518;13.486;2023-08-20T05:02:44;11.02;;;8.18;;
9100;SDS011;4586;52.518;13.486;2023-08-20T05:06:50;10.93;;;9.73;;
9100;SDS011;4586;52.518;13.486;2023-08-20T05:10:53;10.20;;;8.50;;
9100;SDS011;4586;52.518;13.486;2023-08-20T05:14:55;10.93;;;8.95;;
9100;SDS011;4586;52.518;13.486;2023-08-20T05:18:58;10.93;;;9.20;;
9100;SDS011;4586;52.518;13.486;2023-08-20T05:23:00;9.95;;;8.60;;
9100;SDS011;4586;52.518;13.486;2023-08-20T05:27:06;12.98;;;9.25;;
9100;SDS011;4586;52.518;13.486;2023-08-20T05:31:09;10.52;;;9.15;;
9100;SDS011;4586;52.518;13.486;2023-08-20T05:35:11;12.75;;;8.88;;
9100;SDS011;4586;52.518;13.486;2023-08-20T05:39:15;10.43;;;8.02;;
9100;SDS011;4586;52.518;13.486;2023-08-20T05:43:17;10.73;;;8.85;;
9100;SDS011;4586;52.518;13.486;2023-08-20T05:47:20;11.13;;;9.23;;
9100;SDS011;4586;52.518;13.486;2023-08-20T05:51:23;11.77;;;10.07;;
9100;SDS011;4586;52.518;13.486;2023-08-20T05:55:25;9.32;;;8.32;;
9100;SDS011;4586;52.518;13.486;2023-08-20T05:59:28;11.30;;;9.23;;
9100;SDS011;4586;52.518;13.486;2023-08-20T06:03:30;12.98;;;9.57;;
9100;SDS011;4586;52.518;13.486;2023-08-20T06:07:32;10.95;;;9.57;;
9100;SDS011;4586;52.518;13.486;2023-08-20T06:11:35;11.48;;;10.15;;
9100;SDS011;4586;52.518;13.486;2023-08-20T06:15:37;10.93;;;9.82;;
9100;SDS011;4586;52.518;13.486;2023-08-20T06:19:39;15.05;;;9.77;;
9100;SDS011;4586;52.518;13.486;2023-08-20T06:23:41;13.30;;;9.13;;
9100;SDS011;4586;52.518;13.486;2023-08-20T06:27:45;13.63;;;8.20;;
9100;SDS011;4586;52.518;13.486;2023-08-20T06:31:47;11.55;;;9.43;;
9100;SDS011;4586;52.518;13.486;2023-08-20T06:35:49;10.88;;;9.63;;
9100;SDS011;4586;52.518;13.486;2023-08-20T06:39:51;12.10;;;9.88;;
9100;SDS011;4586;52.518;13.486;2023-08-20T06:43:54;12.10;;;9.95;;
9100;SDS011;4586;52.518;13.486;2023-08-20T06:47:56;12.00;;;10.07;;
9100;SDS011;4586;52.518;13.486;2023-08-20T06:51:58;13.25;;;9.02;;
9100;SDS011;4586;52.518;13.486;2023-08-20T06:56:00;12.05;;;9.40;;
9100;SDS011;4586;52.518;13.486;2023-08-20T07:00:02;11.65;;;8.57;;
9100;SDS011;4586;52.518;13.486;2023-08-20T07:04:05;10.57;;;8.55;;
9100;SDS011;4586;52.518;13.486;2023-08-20T07:08:07;9.60;;;7.95;;
9100;SDS011;4586;52.518;13.486;2023-08-20T07:12:09;10.23;;;9.02;;
9100;SDS011;4586;52.518;13.486;2023-08-20T07:16:11;12.13;;;9.38;;
9100;SDS011;4586;52.518;13.486;2023-08-20T07:20:13;11.68;;;9.80;;
9100;SDS011;4586;52.518;13.486;2023-08-20T07:24:16;10.88;;;9.45;;
9100;SDS011;4586;52.518;13.486;2023-08-20T07:28:18;12.77;;;9.60;;
9100;SDS011;4586;52.518;13.486;2023-08-20T07:32:20;13.00;;;9.80;;
9100;SDS011;4586;52.518;13.486;2023-08-20T07:36:23;13.27;;;11.07;;
9100;SDS011;4586;52.518;13.486;2023-08-20T07:40:26;17.45;;;12.88;;
9100;SDS011;4586;52.518;13.486;2023-08-20T07:44:28;11.32;;;9.68;;
9100;SDS011;4586;52.518;13.486;2023-08-20T07:48:30;9.85;;;8.60;;
9100;SDS011;4586;52.518;13.486;2023-08-20T07:52:32;10.05;;;8.50;;
9100;SDS011;4586;52.518;13.486;2023-08-20T07:56:35;11.88;;;9.68;;
9100;SDS011;4586;52.518;13.486;2023-08-20T08:00:37;12.02;;;10.68;;
9100;SDS011;4586;52.518;13.486;2023-08-20T08:04:39;18.13;;;14.82;;
9100;SDS011;4586;52.518;13.486;2023-08-20T08:08:44;16.23;;;13.77;;
9100;SDS011;4586;52.518;13.486;2023-08-20T08:12:46;11.20;;;9.60;;
9100;SDS011;4586;52.518;13.486;2023-08-20T08:16:48;12.43;;;9.55;;
9100;SDS011;4586;52.518;13.486;2023-08-20T08:20:50;11.38;;;8.13;;
9100;SDS011;4586;52.518;13.486;2023-08-20T08:24:52;11.35;;;8.57;;
9100;SDS011;4586;52.518;13.486;2023-08-20T08:28:55;9.63;;;8.63;;
9100;SDS011;4586;52.518;13.486;2023-08-20T08:32:57;11.27;;;8.93;;
9100;SDS011;4586;52.518;13.486;2023-08-20T08:37:00;11.60;;;8.70;;
9100;SDS011;4586;52.518;13.486;2023-08-20T08:41:03;10.63;;;8.43;;
9100;SDS011;4586;52.518;13.486;2023-08-20T08:45:05;10.48;;;8.60;;
9100;SDS011;4586;52.518;13.486;2023-08-20T08:49:08;13.25;;;8.77;;
9100;SDS011;4586;52.518;13.486;2023-08-20T08:53:10;12.77;;;9.75;;
9100;SDS011;4586;52.518;13.486;2023-08-20T08:57:14;13.88;;;8.73;;
9100;SDS011;4586;52.518;13.486;2023-08-20T09:01:16;12.02;;;8.90;;
9100;SDS011;4586;52.518;13.486;2023-08-20T09:05:18;10.52;;;8.25;;
9100;SDS011;4586;52.518;13.486;2023-08-20T09:09:21;9.93;;;7.85;;
9100;SDS011;4586;52.518;13.486;2023-08-20T09:13:32;8.73;;;7.53;;
9100;SDS011;4586;52.518;13.486;2023-08-20T09:17:34;10.50;;;7.32;;
9100;SDS011;4586;52.518;13.486;2023-08-20T09:21:37;10.38;;;6.88;;
9100;SDS011;4586;52.518;13.486;2023-08-20T09:25:40;11.65;;;9.13;;
9100;SDS011;4586;52.518;13.486;2023-08-20T09:29:43;7.47;;;6.78;;
9100;SDS011;4586;52.518;13.486;2023-08-20T09:33:52;8.32;;;6.57;;
9100;SDS011;4586;52.518;13.486;2023-08-20T09:38:01;8.00;;;6.55;;
9100;SDS011;4586;52.518;13.486;2023-08-20T09:42:03;9.65;;;7.40;;
9100;SDS011;4586;52.518;13.486;2023-08-20T09:46:05;11.60;;;8.35;;
9100;SDS011;4586;52.518;13.486;2023-08-20T09:50:11;7.82;;;6.72;;
9100;SDS011;4586;52.518;13.486;2023-08-20T09:54:16;11.60;;;10.35;;
9100;SDS011;4586;52.518;13.486;2023-08-20T09:58:21;6.65;;;5.68;;
9100;SDS011;4586;52.518;13.486;2023-08-20T10:02:23;7.07;;;6.38;;
9100;SDS011;4586;52.518;13.486;2023-08-20T10:06:26;9.82;;;7.68;;
9100;SDS011;4586;52.518;13.486;2023-08-20T10:10:28;6.70;;;6.03;;
9100;SDS011;4586;52.518;13.486;2023-08-20T10:14:30;6.22;;;5.25;;
9100;SDS011;4586;52.518;13.486;2023-08-20T10:18:36;11.30;;;9.48;;
9100;SDS011;4586;52.518;13.486;2023-08-20T10:22:39;8.40;;;6.82;;
9100;SDS011;4586;52.518;13.486;2023-08-20T10:26:42;6.57;;;5.03;;
9100;SDS011;4586;52.518;13.486;2023-08-20T10:31:02;5.35;;;4.70;;
9100;SDS011;4586;52.518;13.486;2023-08-20T10:35:05;6.55;;;4.80;;
9100;SDS011;4586;52.518;13.486;2023-08-20T10:39:20;5.53;;;4.43;;
9100;SDS011;4586;52.518;13.486;2023-08-20T10:47:46;5.57;;;4.07;;
9100;SDS011;4586;52.518;13.486;2023-08-20T10:51:49;4.20;;;3.40;;
9100;SDS011;4586;52.518;13.486;2023-08-20T10:55:51;4.10;;;3.67;;
9100;SDS011;4586;52.518;13.486;2023-08-20T10:59:57;3.95;;;3.13;;
9100;SDS011;4586;52.518;13.486;2023-08-20T11:03:59;3.70;;;3.33;;
9100;SDS011;4586;52.518;13.486;2023-08-20T11:08:02;3.58;;;3.28;;
9100;SDS011;4586;52.518;13.486;2023-08-20T11:12:04;4.53;;;3.92;;
9100;SDS011;4586;52.518;13.486;2023-08-20T11:16:06;3.53;;;3.22;;
9100;SDS011;4586;52.518;13.486;2023-08-20T11:20:09;4.20;;;3.38;;
9100;SDS011;4586;52.518;13.486;2023-08-20T11:24:11;3.10;;;2.88;;
9100;SDS011;4586;52.518;13.486;2023-08-20T11:28:13;4.10;;;3.05;;
9100;SDS011;4586;52.518;13.486;2023-08-20T11:32:15;3.72;;;2.85;;
9100;SDS011;4586;52.518;13.486;2023-08-20T11:36:19;2.92;;;2.42;;
9100;SDS011;4586;52.518;13.486;2023-08-20T11:40:22;3.97;;;2.70;;
9100;SDS011;4586;52.518;13.486;2023-08-20T11:44:24;4.00;;;2.72;;
9100;SDS011;4586;52.518;13.486;2023-08-20T11:48:26;5.00;;;4.28;;
9100;SDS011;4586;52.518;13.486;2023-08-20T11:52:30;8.30;;;7.18;;
9100;SDS011;4586;52.518;13.486;2023-08-20T11:56:32;2.72;;;2.30;;
9100;SDS011;4586;52.518;13.486;2023-08-20T12:00:35;3.35;;;2.40;;
9100;SDS011;4586;52.518;13.486;2023-08-20T12:04:38;3.90;;;3.30;;
9100;SDS011;4586;52.518;13.486;2023-08-20T12:08:40;2.90;;;2.60;;
9100;SDS011;4586;52.518;13.486;2023-08-20T12:12:42;2.40;;;2.20;;
9100;SDS011;4586;52.518;13.486;2023-08-20T12:16:47;28.80;;;18.98;;
9100;SDS011;4586;52.518;13.486;2023-08-20T12:20:50;3.63;;;3.33;;
9100;SDS011;4586;52.518;13.486;2023-08-20T12:24:52;6.82;;;5.13;;
9100;SDS011;4586;52.518;13.486;2023-08-20T12:28:54;4.03;;;3.20;;
9100;SDS011;4586;52.518;13.486;2023-08-20T12:32:56;3.53;;;2.35;;
9100;SDS011;4586;52.518;13.486;2023-08-20T12:36:58;4.43;;;3.30;;
9100;SDS011;4586;52.518;13.486;2023-08-20T12:41:01;2.95;;;2.65;;
9100;SDS011;4586;52.518;13.486;2023-08-20T12:45:06;4.30;;;2.20;;
9100;SDS011;4586;52.518;13.486;2023-08-20T12:49:09;4.07;;;2.45;;
9100;SDS011;4586;52.518;13.486;2023-08-20T12:53:11;3.33;;;2.75;;
9100;SDS011;4586;52.518;13.486;2023-08-20T12:57:13;2.15;;;1.90;;
9100;SDS011;4586;52.518;13.486;2023-08-20T13:01:15;3.70;;;2.33;;
9100;SDS011;4586;52.518;13.486;2023-08-20T13:05:18;2.55;;;2.08;;
9100;SDS011;4586;52.518;13.486;2023-08-20T13:09:20;2.63;;;1.55;;
9100;SDS011;4586;52.518;13.486;2023-08-20T13:13:23;3.15;;;1.95;;
9100;SDS011;4586;52.518;13.486;2023-08-20T13:17:25;2.40;;;2.15;;
9100;SDS011;4586;52.518;13.486;2023-08-20T13:21:28;2.22;;;1.80;;
9100;SDS011;4586;52.518;13.486;2023-08-20T13:25:30;2.53;;;2.28;;
9100;SDS011;4586;52.518;13.486;2023-08-20T13:29:32;2.55;;;2.00;;
9100;SDS011;4586;52.518;13.486;2023-08-20T13:33:34;2.35;;;2.10;;
9100;SDS011;4586;52.518;13.486;2023-08-20T13:37:36;2.67;;;2.22;;
9100;SDS011;4586;52.518;13.486;2023-08-20T13:41:39;3.13;;;2.33;;
9100;SDS011;4586;52.518;13.486;2023-08-20T13:45:41;2.28;;;1.80;;
9100;SDS011;4586;52.518;13.486;2023-08-20T13:49:43;1.98;;;1.80;;
9100;SDS011;4586;52.518;13.486;2023-08-20T13:53:45;2.30;;;2.10;;
9100;SDS011;4586;52.518;13.486;2023-08-20T13:57:47;2.40;;;1.63;;
9100;SDS011;4586;52.518;13.486;2023-08-20T14:01:50;1.30;;;1.20;;
9100;SDS011;4586;52.518;13.486;2023-08-20T14:05:52;3.28;;;1.70;;
9100;SDS011;4586;52.518;13.486;2023-08-20T14:09:54;1.95;;;1.65;;
9100;SDS011;4586;52.518;13.486;2023-08-20T14:13:56;1.23;;;1.13;;
9100;SDS011;4586;52.518;13.486;2023-08-20T14:17:58;1.50;;;1.40;;
9100;SDS011;4586;52.518;13.486;2023-08-20T14:22:00;3.30;;;3.00;;
9100;SDS011;4586;52.518;13.486;2023-08-20T14:26:04;3.03;;;2.30;;
9100;SDS011;4586;52.518;13.486;2023-08-20T14:30:06;2.05;;;1.60;;
9100;SDS011;4586;52.518;13.486;2023-08-20T14:34:08;2.55;;;1.90;;
9100;SDS011;4586;52.518;13.486;2023-08-20T14:38:10;2.65;;;1.52;;
9100;SDS011;4586;52.518;13.486;2023-08-20T14:42:13;2.08;;;1.52;;
9100;SDS011;4586;52.518;13.486;2023-08-20T14:46:15;1.40;;;1.25;;
9100;SDS011;4586;52.518;13.486;2023-08-20T14:50:17;1.83;;;1.20;;
9100;SDS011;4586;52.518;13.486;2023-08-20T14:54:19;4.28;;;3.78;;
9100;SDS011;4586;52.518;13.486;2023-08-20T14:58:21;2.47;;;1.75;;
9100;SDS011;4586;52.518;13.486;2023-08-20T15:02:23;3.22;;;2.15;;
9100;SDS011;4586;52.518;13.486;2023-08-20T15:06:26;1.40;;;1.30;;
9100;SDS011;4586;52.518;13.486;2023-08-20T15:10:28;1.55;;;1.33;;
9100;SDS011;4586;52.518;13.486;2023-08-20T15:14:30;1.90;;;1.50;;
9100;SDS011;4586;52.518;13.486;2023-08-20T15:18:32;2.50;;;1.60;;
9100;SDS011;4586;52.518;13.486;2023-08-20T15:22:34;2.28;;;1.90;;
9100;SDS011;4586;52.518;13.486;2023-08-20T15:26:36;1.75;;;1.50;;
9100;SDS011;4586;52.518;13.486;2023-08-20T15:30:39;2.17;;;1.08;;
9100;SDS011;4586;52.518;13.486;2023-08-20T15:34:41;3.70;;;2.00;;
9100;SDS011;4586;52.518;13.486;2023-08-20T15:38:43;2.05;;;1.45;;
9100;SDS011;4586;52.518;13.486;2023-08-20T15:42:45;2.75;;;1.38;;
9100;SDS011;4586;52.518;13.486;2023-08-20T15:46:47;1.77;;;1.30;;
9100;SDS011;4586;52.518;13.486;2023-08-20T15:50:49;1.95;;;1.70;;
9100;SDS011;4586;52.518;13.486;2023-08-20T15:54:51;1.65;;;1.30;;
9100;SDS011;4586;52.518;13.486;2023-08-20T15:58:53;1.92;;;1.50;;
9100;SDS011;4586;52.518;13.486;2023-08-20T16:02:56;2.35;;;1.48;;
9100;SDS011;4586;52.518;13.486;2023-08-20T16:06:58;4.13;;;1.92;;
9100;SDS011;4586;52.518;13.486;2023-08-20T16:11:00;3.65;;;2.00;;
9100;SDS011;4586;52.518;13.486;2023-08-20T16:15:03;5.75;;;2.97;;
9100;SDS011;4586;52.518;13.486;2023-08-20T16:19:05;2.28;;;1.40;;
9100;SDS011;4586;52.518;13.486;2023-08-20T16:23:07;2.55;;;1.55;;
9100;SDS011;4586;52.518;13.486;2023-08-20T16:27:09;2.03;;;1.20;;
9100;SDS011;4586;52.518;13.486;2023-08-20T16:31:12;3.47;;;1.73;;
9100;SDS011;4586;52.518;13.486;2023-08-20T16:35:14;3.75;;;2.97;;
9100;SDS011;4586;52.518;13.486;2023-08-20T16:39:16;2.38;;;1.30;;
9100;SDS011;4586;52.518;13.486;2023-08-20T16:43:18;2.17;;;1.00;;
9100;SDS011;4586;52.518;13.486;2023-08-20T16:47:20;3.90;;;1.40;;
9100;SDS011;4586;52.518;13.486;2023-08-20T16:51:23;2.22;;;1.40;;
9100;SDS011;4586;52.518;13.486;2023-08-20T16:55:25;1.35;;;1.23;;
9100;SDS011;4586;52.518;13.486;2023-08-20T16:59:27;5.40;;;2.30;;
9100;SDS011;4586;52.518;13.486;2023-08-20T17:03:29;1.60;;;1.40;;
9100;SDS011;4586;52.518;13.486;2023-08-20T17:07:31;1.52;;;1.15;;
9100;SDS011;4586;52.518;13.486;2023-08-20T17:11:34;1.83;;;1.27;;
9100;SDS011;4586;52.518;13.486;2023-08-20T17:15:36;1.98;;;1.10;;
9100;SDS011;4586;52.518;13.486;2023-08-20T17:19:39;2.63;;;1.70;;
9100;SDS011;4586;52.518;13.486;2023-08-20T17:23:41;1.45;;;1.30;;
9100;SDS011;4586;52.518;13.486;2023-08-20T17:27:43;2.15;;;1.30;;
9100;SDS011;4586;52.518;13.486;2023-08-20T17:31:46;2.20;;;1.20;;
9100;SDS011;4586;52.518;13.486;2023-08-20T17:35:48;2.35;;;1.25;;
9100;SDS011;4586;52.518;13.486;2023-08-20T17:40:00;2.13;;;1.30;;
9100;SDS011;4586;52.518;13.486;2023-08-20T17:44:02;1.60;;;1.02;;
9100;SDS011;4586;52.518;13.486;2023-08-20T17:48:04;1.50;;;1.40;;
9100;SDS011;4586;52.518;13.486;2023-08-20T17:52:07;3.10;;;1.85;;
9100;SDS011;4586;52.518;13.486;2023-08-20T17:56:09;2.38;;;1.48;;
9100;SDS011;4586;52.518;13.486;2023-08-20T18:00:11;2.58;;;1.80;;
9100;SDS011;4586;52.518;13.486;2023-08-20T18:04:13;10.63;;;7.57;;
9100;SDS011;4586;52.518;13.486;2023-08-20T18:08:15;6.53;;;4.85;;
9100;SDS011;4586;52.518;13.486;2023-08-20T18:12:18;3.80;;;1.48;;
9100;SDS011;4586;52.518;13.486;2023-08-20T18:16:20;4.18;;;3.40;;
9100;SDS011;4586;52.518;13.486;2023-08-20T18:20:22;12.68;;;8.25;;
9100;SDS011;4586;52.518;13.486;2023-08-20T18:24:24;4.72;;;2.35;;
9100;SDS011;4586;52.518;13.486;2023-08-20T18:28:26;2.65;;;1.83;;
9100;SDS011;4586;52.518;13.486;2023-08-20T18:32:28;3.33;;;1.63;;
9100;SDS011;4586;52.518;13.486;2023-08-20T18:36:30;3.45;;;2.53;;
9100;SDS011;4586;52.518;13.486;2023-08-20T18:40:33;3.15;;;2.15;;
9100;SDS011;4586;52.518;13.486;2023-08-20T18:44:35;3.40;;;2.28;;
9100;SDS011;4586;52.518;13.486;2023-08-20T18:48:37;6.13;;;3.72;;
9100;SDS011;4586;52.518;13.486;2023-08-20T18:52:39;3.88;;;2.22;;
9100;SDS011;4586;52.518;13.486;2023-08-20T18:56:41;3.00;;;2.10;;
9100;SDS011;4586;52.518;13.486;2023-08-20T19:00:43;3.03;;;2.75;;
9100;SDS011;4586;52.518;13.486;2023-08-20T19:04:45;3.42;;;2.67;;
9100;SDS011;4586;52.518;13.486;2023-08-20T19:08:48;4.45;;;2.67;;
9100;SDS011;4586;52.518;13.486;2023-08-20T19:12:50;6.25;;;2.90;;
9100;SDS011;4586;52.518;13.486;2023-08-20T19:16:52;1.88;;;1.67;;
9100;SDS011;4586;52.518;13.486;2023-08-20T19:20:54;6.60;;;3.53;;
9100;SDS011;4586;52.518;13.486;2023-08-20T19:24:56;3.95;;;2.30;;
9100;SDS011;4586;52.518;13.486;2023-08-20T19:28:59;3.60;;;2.42;;
9100;SDS011;4586;52.518;13.486;2023-08-20T19:33:01;4.30;;;2.28;;
9100;SDS011;4586;52.518;13.486;2023-08-20T19:37:03;3.60;;;2.45;;
9100;SDS011;4586;52.518;13.486;2023-08-20T19:41:05;4.47;;;2.47;;
9100;SDS011;4586;52.518;13.486;2023-08-20T19:45:08;3.08;;;2.22;;
9100;SDS011;4586;52.518;13.486;2023-08-20T19:49:10;3.63;;;2.03;;
9100;SDS011;4586;52.518;13.486;2023-08-20T19:53:12;2.28;;;1.70;;
9100;SDS011;4586;52.518;13.486;2023-08-20T19:57:14;3.58;;;2.10;;
9100;SDS011;4586;52.518;13.486;2023-08-20T20:01:16;3.08;;;1.70;;
9100;SDS011;4586;52.518;13.486;2023-08-20T20:05:19;2.47;;;1.90;;
9100;SDS011;4586;52.518;13.486;2023-08-20T20:09:21;2.45;;;1.88;;
9100;SDS011;4586;52.518;13.486;2023-08-20T20:13:23;2.08;;;1.58;;
9100;SDS011;4586;52.518;13.486;2023-08-20T20:17:25;2.20;;;2.00;;
9100;SDS011;4586;52.518;13.486;2023-08-20T20:21:28;6.13;;;4.93;;
9100;SDS011;4586;52.518;13.486;2023-08-20T20:25:30;2.58;;;1.98;;
9100;SDS011;4586;52.518;13.486;2023-08-20T20:29:32;5.07;;;1.70;;
9100;SDS011;4586;52.518;13.486;2023-08-20T20:33:34;2.47;;;1.65;;
9100;SDS011;4586;52.518;13.486;2023-08-20T20:37:37;2.92;;;1.70;;
9100;SDS011;4586;52.518;13.486;2023-08-20T20:41:39;3.25;;;1.83;;
9100;SDS011;4586;52.518;13.486;2023-08-20T20:45:44;1.80;;;1.60;;
9100;SDS011;4586;52.518;13.486;2023-08-20T20:49:47;4.63;;;2.45;;
9100;SDS011;4586;52.518;13.486;2023-08-20T20:53:49;2.88;;;1.88;;
9100;SDS011;4586;52.518;13.486;2023-08-20T20:57:51;3.47;;;2.28;;
9100;SDS011;4586;52.518;13.486;2023-08-20T21:01:53;1.95;;;1.60;;
9100;SDS011;4586;52.518;13.486;2023-08-20T21:05:55;2.10;;;1.90;;
9100;SDS011;4586;52.518;13.486;2023-08-20T21:09:57;4.30;;;3.42;;
9100;SDS011;4586;52.518;13.486;2023-08-20T21:14:00;2.78;;;1.88;;
9100;SDS011;4586;52.518;13.486;2023-08-20T21:18:02;3.03;;;1.88;;
9100;SDS011;4586;52.518;13.486;2023-08-20T21:22:10;3.92;;;3.00;;
9100;SDS011;4586;52.518;13.486;2023-08-20T21:26:13;3.35;;;2.92;;
9100;SDS011;4586;52.518;13.486;2023-08-20T21:30:15;5.20;;;3.45;;
9100;SDS011;4586;52.518;13.486;2023-08-20T21:34:17;6.00;;;4.22;;
9100;SDS011;4586;52.518;13.486;2023-08-20T21:38:20;4.43;;;3.72;;
9100;SDS011;4586;52.518;13.486;2023-08-20T21:42:22;5.32;;;4.00;;
9100;SDS011;4586;52.518;13.486;2023-08-20T21:46:24;4.95;;;4.22;;
9100;SDS011;4586;52.518;13.486;2023-08-20T21:50:26;5.72;;;4.28;;
9100;SDS011;4586;52.518;13.486;2023-08-20T21:54:29;4.70;;;4.20;;
9100;SDS011;4586;52.518;13.486;2023-08-20T21:58:31;7.18;;;4.90;;
9100;SDS011;4586;52.518;13.486;2023-08-20T22:02:33;6.80;;;4.82;;
9100;SDS011;4586;52.518;13.486;2023-08-20T22:06:36;5.43;;;4.63;;
9100;SDS011;4586;52.518;13.486;2023-08-20T22:10:38;6.97;;;4.75;;
9100;SDS011;4586;52.518;13.486;2023-08-20T22:14:40;5.95;;;4.88;;
9100;SDS011;4586;52.518;13.486;2023-08-20T22:18:43;5.82;;;4.95;;
9100;SDS011;4586;52.518;13.486;2023-08-20T22:22:45;6.80;;;5.03;;
9100;SDS011;4586;52.518;13.486;2023-08-20T22:26:47;6.82;;;5.30;;
9100;SDS011;4586;52.518;13.486;2023-08-20T22:30:49;6.68;;;5.38;;
9100;SDS011;4586;52.518;13.486;2023-08-20T22:34:51;7.47;;;5.32;;
9100;SDS011;4586;52.518;13.486;2023-08-20T22:38:54;6.13;;;5.43;;
9100;SDS011;4586;52.518;13.486;2023-08-20T22:42:56;7.60;;;6.07;;
9100;SDS011;4586;52.518;13.486;2023-08-20T22:46:58;6.45;;;5.25;;
9100;SDS011;4586;52.518;13.486;2023-08-20T22:51:00;6.60;;;5.80;;
9100;SDS011;4586;52.518;13.486;2023-08-20T22:55:02;6.72;;;5.72;;
9100;SDS011;4586;52.518;13.486;2023-08-20T22:59:04;7.30;;;5.75;;
9100;SDS011;4586;52.518;13.486;2023-08-20T23:03:06;7.75;;;5.35;;
9100;SDS011;4586;52.518;13.486;2023-08-20T23:07:09;7.43;;;5.90;;
9100;SDS011;4586;52.518;13.486;2023-08-20T23:11:11;6.97;;;5.28;;
9100;SDS011;4586;52.518;13.486;2023-08-20T23:15:13;7.20;;;5.88;;
9100;SDS011;4586;52.518;13.486;2023-08-20T23:19:15;6.40;;;5.72;;
9100;SDS011;4586;52.518;13.486;2023-08-20T23:23:17;9.05;;;6.22;;
9100;SDS011;4586;52.518;13.486;2023-08-20T23:27:20;9.35;;;6.38;;
9100;SDS011;4586;52.518;13.486;2023-08-20T23:31:22;9.07;;;6.30;;
9100;SDS011;4586;52.518;13.486;2023-08-20T23:35:24;6.05;;;5.45;;
9100;SDS011;4586;52.518;13.486;2023-08-20T23:39:26;9.27;;;6.60;;
9100;SDS011;4586;52.518;13.486;2023-08-20T23:43:28;6.68;;;5.97;;
9100;SDS011;4586;52.518;13.486;2023-08-20T23:47:30;6.93;;;5.57;;
9100;SDS011;4586;52.518;13.486;2023-08-20T23:51:33;7.72;;;6.10;;
9100;SDS011;4586;52.518;13.486;2023-08-20T23:55:35;9.32;;;6.13;;
9100;SDS011;4586;52.518;13.486;2023-08-20T23:59:37;7.05;;;6.03;;
